createdAt,value
2023-03-01T00:04:28.750Z,23.20
2023-03-01T00:09:30.455Z,21.25
2023-03-01T00:14:32.012Z,24.48
2023-03-01T00:19:33.840Z,23.55
2023-03-01T00:24:35.413Z,24.15
2023-03-01T00:29:36.965Z,20.35
2023-03-01T00:34:38.713Z,24.38
2023-03-01T00:39:40.321Z,20.95
2023-03-01T00:44:41.883Z,20.17
2023-03-01T00:49:43.550Z,24.80
2023-03-01T00:54:45.147Z,24.83
2023-03-01T00:59:46.705Z,21.95
2023-03-01T01:04:50.831Z,21.63
2023-03-01T01:09:54.867Z,19.55
2023-03-01T01:14:56.491Z,24.40
2023-03-01T01:19:58.221Z,22.30
2023-03-01T01:24:59.840Z,24.13
2023-03-01T01:30:01.419Z,24.45
2023-03-01T01:35:03.056Z,22.80
2023-03-01T01:40:05.229Z,24.63
2023-03-01T01:45:36.968Z,18.83
2023-03-01T01:50:41.578Z,21.27
2023-03-01T01:55:54.628Z,22.20
2023-03-01T02:00:56.449Z,20.77
2023-03-01T02:06:04.730Z,24.42
2023-03-01T02:11:07.063Z,23.23
2023-03-01T02:16:15.671Z,26.13
2023-03-01T02:21:47.604Z,20.90
2023-03-01T02:26:59.540Z,22.48
2023-03-01T02:32:04.946Z,23.02
2023-03-01T02:37:15.835Z,21.15
2023-03-01T02:42:27.358Z,23.08
2023-03-01T02:47:29.143Z,23.60
2023-03-01T02:53:12.167Z,25.30
2023-03-01T02:58:13.826Z,24.33
2023-03-01T03:03:17.839Z,23.63
2023-03-01T03:08:25.050Z,25.75
2023-03-01T03:13:29.464Z,24.90
2023-03-01T03:18:31.293Z,28.15
2023-03-01T03:23:32.983Z,25.65
2023-03-01T03:28:35.910Z,23.98
2023-03-01T03:33:37.915Z,27.10
2023-03-01T03:38:40.943Z,24.67
2023-03-01T03:43:44.692Z,27.23
2023-03-01T03:48:47.030Z,24.40
2023-03-01T03:53:51.428Z,27.48
2023-03-01T03:58:53.813Z,23.52
2023-03-01T04:03:55.642Z,25.52
2023-03-01T04:08:59.219Z,25.13
2023-03-01T04:14:01.169Z,26.70
2023-03-01T04:19:02.932Z,28.35
2023-03-01T04:24:05.184Z,26.50
2023-03-01T04:29:06.743Z,27.60
2023-03-01T04:34:08.504Z,27.25
2023-03-01T04:39:13.450Z,28.35
2023-03-01T04:44:15.154Z,29.40
2023-03-01T04:49:17.063Z,28.10
2023-03-01T04:54:18.659Z,29.23
2023-03-01T04:59:23.412Z,30.92
2023-03-01T05:04:26.013Z,30.13
2023-03-01T05:09:27.592Z,29.35
2023-03-01T05:14:29.910Z,27.52
2023-03-01T05:19:32.519Z,30.35
2023-03-01T05:24:35.936Z,29.63
2023-03-01T05:29:37.535Z,34.08
2023-03-01T05:34:40.003Z,32.13
2023-03-01T05:39:42.860Z,34.58
2023-03-01T05:44:44.507Z,34.17
2023-03-01T05:49:46.105Z,27.05
2023-03-01T05:54:47.667Z,29.77
2023-03-01T05:59:49.262Z,29.38
2023-03-01T06:04:50.885Z,34.08
2023-03-01T06:09:52.524Z,33.40
2023-03-01T06:14:54.071Z,32.10
2023-03-01T06:19:55.643Z,30.63
2023-03-01T06:30:15.066Z,27.77
2023-03-01T06:35:20.793Z,33.83
2023-03-01T06:40:22.885Z,31.58
2023-03-01T06:45:25.413Z,36.28
2023-03-01T06:50:26.941Z,32.60
2023-03-01T06:55:28.854Z,32.55
2023-03-01T07:00:31.139Z,29.85
2023-03-01T07:05:34.479Z,33.40
2023-03-01T07:10:36.067Z,30.73
2023-03-01T07:15:37.625Z,29.80
2023-03-01T07:20:39.132Z,31.33
2023-03-01T07:25:40.700Z,25.98
2023-03-01T07:30:42.255Z,34.53
2023-03-01T07:35:43.996Z,29.85
2023-03-01T07:40:47.944Z,32.95
2023-03-01T07:45:49.551Z,33.75
2023-03-01T07:50:51.056Z,28.45
2023-03-01T07:56:10.873Z,35.35
2023-03-01T08:01:16.144Z,32.08
2023-03-01T08:06:18.327Z,31.80
2023-03-01T08:11:19.966Z,28.42
2023-03-01T08:16:26.910Z,28.33
2023-03-01T08:21:28.575Z,34.88
2023-03-01T08:26:30.911Z,31.75
2023-03-01T08:31:38.627Z,29.40
2023-03-01T08:36:43.041Z,31.65
2023-03-01T08:41:47.039Z,29.35
2023-03-01T08:46:51.025Z,29.02
2023-03-01T08:51:52.582Z,33.10
2023-03-01T08:56:54.131Z,29.10
2023-03-01T09:01:55.734Z,29.33
2023-03-01T09:06:57.302Z,31.05
2023-03-01T09:11:58.932Z,30.17
2023-03-01T09:17:03.928Z,31.60
2023-03-01T09:22:05.948Z,31.73
2023-03-01T09:27:09.808Z,26.30
2023-03-01T09:32:11.886Z,30.92
2023-03-01T09:37:13.466Z,29.48
2023-03-01T09:42:15.137Z,31.52
2023-03-01T09:47:22.412Z,29.10
2023-03-01T09:52:38.744Z,32.00
2023-03-01T09:58:22.131Z,31.42
2023-03-01T10:03:35.737Z,28.10
2023-03-01T10:08:49.533Z,30.15
2023-03-01T10:14:15.774Z,29.92
2023-03-01T10:19:33.191Z,33.75
2023-03-01T10:24:37.149Z,33.25
2023-03-01T10:29:44.436Z,33.05
2023-03-01T10:34:45.990Z,29.40
2023-03-01T10:40:09.171Z,34.38
2023-03-01T10:45:39.782Z,29.95
2023-03-01T10:51:00.899Z,27.92
2023-03-01T10:56:05.231Z,29.33
2023-03-01T11:01:25.864Z,32.20
2023-03-01T11:06:27.486Z,30.30
2023-03-01T11:11:34.501Z,31.45
2023-03-01T11:16:39.218Z,27.98
2023-03-01T11:21:56.125Z,32.92
2023-03-01T11:27:00.827Z,28.10
2023-03-01T11:32:08.182Z,32.67
2023-03-01T11:37:27.579Z,29.67
2023-03-01T11:42:40.319Z,28.70
2023-03-01T11:47:52.294Z,33.15
2023-03-01T11:53:01.900Z,31.40
2023-03-01T11:58:13.014Z,30.27
2023-03-01T12:03:30.467Z,29.80
2023-03-01T12:08:36.758Z,30.73
2023-03-01T12:13:57.237Z,31.25
2023-03-01T12:19:01.508Z,28.45
2023-03-01T12:24:18.201Z,31.58
2023-03-01T12:29:27.195Z,29.20
2023-03-01T12:34:43.215Z,28.03
2023-03-01T12:39:53.730Z,28.42
2023-03-01T12:45:13.484Z,31.75
2023-03-01T12:50:22.812Z,29.85
2023-03-01T12:55:34.705Z,28.95
2023-03-01T13:00:52.002Z,29.85
2023-03-01T13:06:24.208Z,32.03
2023-03-01T13:11:27.412Z,29.30
2023-03-01T13:16:28.964Z,26.58
2023-03-01T13:21:32.288Z,29.08
2023-03-01T13:27:23.847Z,26.40
2023-03-01T13:32:48.509Z,29.77
2023-03-01T13:37:50.173Z,28.15
2023-03-01T13:43:04.632Z,28.92
2023-03-01T13:48:16.427Z,27.73
2023-03-01T13:53:24.482Z,28.95
2023-03-01T13:58:29.501Z,27.55
2023-03-01T14:03:33.404Z,27.15
2023-03-01T14:08:41.388Z,27.02
2023-03-01T14:13:58.209Z,27.60
2023-03-01T14:19:35.301Z,28.23
2023-03-01T14:24:45.688Z,26.33
2023-03-01T14:30:02.218Z,28.27
2023-03-01T14:35:04.794Z,26.65
2023-03-01T14:40:23.572Z,27.90
2023-03-01T14:45:27.202Z,27.02
2023-03-01T14:50:31.667Z,28.02
2023-03-01T14:55:45.700Z,27.00
2023-03-01T15:00:58.926Z,27.55
2023-03-01T15:06:06.292Z,28.50
2023-03-01T15:11:14.241Z,28.45
2023-03-01T15:16:19.561Z,25.00
2023-03-01T15:21:28.060Z,27.67
2023-03-01T15:26:42.702Z,27.33
2023-03-01T15:31:44.554Z,26.55
2023-03-01T15:36:50.665Z,26.10
2023-03-01T15:41:52.305Z,26.80
2023-03-01T15:46:54.151Z,24.67
2023-03-01T15:51:56.250Z,30.42
2023-03-01T15:56:58.004Z,28.02
2023-03-01T16:01:59.509Z,25.10
2023-03-01T16:07:02.049Z,22.75
2023-03-01T16:12:03.728Z,27.38
2023-03-01T16:17:06.429Z,23.20
2023-03-01T16:22:11.129Z,25.50
2023-03-01T16:27:12.722Z,23.10
2023-03-01T16:32:14.524Z,28.48
2023-03-01T16:37:17.098Z,25.38
2023-03-01T16:42:21.300Z,25.30
2023-03-01T16:47:23.488Z,32.20
2023-03-01T16:52:25.078Z,25.00
2023-03-01T16:57:26.737Z,28.17
2023-03-01T17:02:28.675Z,24.58
2023-03-01T17:07:34.310Z,25.05
2023-03-01T17:12:36.635Z,23.73
2023-03-01T17:17:38.162Z,23.45
2023-03-01T17:22:39.712Z,27.10
2023-03-01T17:27:41.478Z,26.30
2023-03-01T17:32:43.456Z,23.27
2023-03-01T17:37:46.534Z,24.17
2023-03-01T17:42:48.204Z,27.05
2023-03-01T17:47:49.738Z,27.40
2023-03-01T17:52:51.647Z,27.05
2023-03-01T17:57:53.169Z,26.70
2023-03-01T18:02:54.923Z,25.60
2023-03-01T18:07:56.418Z,23.85
2023-03-01T18:12:59.627Z,25.25
2023-03-01T18:18:01.192Z,24.92
2023-03-01T18:23:02.776Z,28.55
2023-03-01T18:28:04.481Z,26.02
2023-03-01T18:33:06.049Z,26.73
2023-03-01T18:38:07.586Z,26.95
2023-03-01T18:43:11.462Z,23.60
2023-03-01T18:48:14.336Z,22.90
2023-03-01T18:53:15.935Z,25.83
2023-03-01T18:58:17.456Z,24.35
2023-03-01T19:03:19.023Z,22.75
2023-03-01T19:08:20.893Z,21.45
2023-03-01T19:13:22.504Z,21.77
2023-03-01T19:18:24.009Z,25.58
2023-03-01T19:23:25.601Z,29.02
2023-03-01T19:28:27.226Z,27.40
2023-03-01T19:33:30.336Z,26.13
2023-03-01T19:38:31.858Z,24.95
2023-03-01T19:43:33.838Z,31.25
2023-03-01T19:48:35.619Z,31.35
2023-03-01T19:53:39.092Z,29.13
2023-03-01T19:58:40.686Z,28.88
2023-03-01T20:03:42.445Z,27.27
2023-03-01T20:08:44.667Z,26.02
2023-03-01T20:13:48.494Z,25.27
2023-03-01T20:18:50.193Z,30.02
2023-03-01T20:23:52.197Z,30.23
2023-03-01T20:28:55.536Z,32.80
2023-03-01T20:33:58.044Z,29.73
2023-03-01T20:38:59.606Z,30.88
2023-03-01T20:44:01.199Z,28.73
2023-03-01T20:49:03.820Z,34.58
2023-03-01T20:54:05.513Z,30.77
2023-03-01T20:59:09.649Z,31.13
2023-03-01T21:04:11.311Z,31.40
2023-03-01T21:09:12.847Z,34.53
2023-03-01T21:14:14.397Z,30.50
2023-03-01T21:19:16.022Z,31.85
2023-03-01T21:24:17.567Z,34.80
2023-03-01T21:29:19.128Z,31.05
2023-03-01T21:34:20.658Z,30.60
2023-03-01T21:39:22.394Z,30.58
2023-03-01T21:44:26.504Z,31.85
2023-03-01T21:49:28.122Z,35.72
2023-03-01T21:54:29.619Z,30.17
2023-03-01T21:59:31.182Z,34.65
2023-03-01T22:04:32.872Z,33.90
2023-03-01T22:09:36.216Z,31.48
2023-03-01T22:14:37.784Z,34.08
2023-03-01T22:19:39.309Z,34.80
2023-03-01T22:24:40.879Z,36.30
2023-03-01T22:29:42.413Z,34.03
2023-03-01T22:34:43.920Z,41.42
2023-03-01T22:39:45.450Z,32.67
2023-03-01T22:44:47.089Z,35.60
2023-03-01T22:49:48.629Z,35.42
2023-03-01T22:54:54.296Z,33.55
2023-03-01T22:59:55.798Z,34.67
2023-03-01T23:04:57.321Z,29.25
2023-03-01T23:10:02.215Z,35.45
2023-03-01T23:15:05.041Z,30.35
2023-03-01T23:20:10.288Z,32.45
2023-03-01T23:25:15.027Z,35.70
2023-03-01T23:30:16.996Z,31.95
2023-03-01T23:35:18.799Z,30.88
2023-03-01T23:40:20.611Z,31.38
2023-03-01T23:45:22.108Z,33.53
2023-03-01T23:50:25.007Z,29.52
2023-03-01T23:55:27.855Z,32.17
